Date,TemperatureHighF,TemperatureAvgF,TemperatureLowF,DewpointHighF,DewpointAvgF,DewpointLowF,HumidityHigh,HumidityAvg,HumidityLow,PressureMaxIn,PressureMinIn,WindSpeedMaxMPH,WindSpeedAvgMPH,GustSpeedMaxMPH,PrecipitationSumIn
2013-1-1,53.0,47.1,42.0,-99.9,-99.9,-99.9,0,0,100,30.28,30.20,17,-8,23,0.00
2013-1-2,56.0,49.0,45.0,-99.9,-99.9,-99.9,0,0,100,30.24,30.14,10,5,14,0.00
2013-1-3,55.0,47.3,43.0,-99.9,-99.9,-99.9,0,0,100,30.27,30.17,12,7,15,0.00
2013-1-4,57.0,48.9,43.0,-99.9,-99.9,-99.9,0,0,100,30.29,30.17,14,8,16,0.00
2013-1-5,51.0,47.3,44.0,-99.9,-99.9,-99.9,0,0,100,30.26,30.06,10,-19,15,0.00
2013-1-6,52.0,48.2,46.0,-99.9,-99.9,-99.9,0,0,100,30.19,30.06,15,6,23,0.00
2013-1-7,54.0,48.7,44.0,-99.9,-99.9,-99.9,0,0,100,30.27,30.16,7,3,11,0.00
2013-1-8,55.0,49.4,45.0,-99.9,-99.9,-99.9,0,0,100,30.25,30.13,13,0,14,0.00
2013-1-9,53.0,48.8,46.0,-99.9,-99.9,-99.9,0,0,100,30.15,29.99,19,8,28,0.00
2013-1-10,51.0,46.4,44.0,-99.9,-99.9,-99.9,0,0,100,30.19,30.08,17,10,21,0.00
2013-1-11,53.0,46.5,43.0,-99.9,-99.9,-99.9,0,0,100,30.26,30.12,20,9,26,0.00
2013-1-12,49.0,45.1,40.0,-99.9,-99.9,-99.9,0,0,100,30.25,30.15,12,4,14,0.00
2013-1-13,48.0,43.5,37.0,-99.9,-99.9,-99.9,0,0,100,30.27,30.18,15,5,22,0.00
2013-1-14,51.0,45.8,39.0,-99.9,-99.9,-99.9,0,0,100,30.41,30.23,19,7,23,0.00
2013-1-15,52.0,45.3,40.0,-99.9,-99.9,-99.9,0,0,100,30.48,30.39,11,-3,15,0.00
2013-1-16,56.0,47.1,40.0,-99.9,-99.9,-99.9,0,0,100,30.44,30.26,13,9,17,0.00
2013-1-17,62.0,52.9,46.0,-99.9,-99.9,-99.9,0,0,100,30.26,30.15,13,8,17,0.00
2013-1-18,63.0,54.2,48.0,-99.9,-99.9,-99.9,0,0,100,30.23,30.13,15,8,21,0.00
2013-1-19,62.0,52.8,46.0,-99.9,-99.9,-99.9,0,0,100,30.25,30.16,16,9,21,0.00
2013-1-20,64.0,53.9,47.0,-99.9,-99.9,-99.9,0,0,100,30.23,30.13,13,1,17,0.00
2013-1-21,63.0,53.5,45.0,-99.9,-99.9,-99.9,0,0,100,30.18,30.08,16,8,18,0.00
2013-1-22,59.0,53.1,49.0,-99.9,-99.9,-99.9,0,0,100,30.11,30.00,13,-2,16,0.00
2013-1-23,52.0,50.7,49.0,-99.9,-99.9,-99.9,0,0,100,30.10,29.95,10,6,13,0.00
2013-1-24,59.0,52.9,49.0,-99.9,-99.9,-99.9,0,0,100,30.19,30.06,13,-2,14,0.00
2013-1-25,62.0,55.0,51.0,-99.9,-99.9,-99.9,0,0,100,30.19,30.04,12,6,15,0.00
2013-1-26,55.0,52.5,49.0,-99.9,-99.9,-99.9,0,0,100,30.08,29.99,19,-29,27,0.00
2013-1-27,55.0,49.1,46.0,-99.9,-99.9,-99.9,0,0,100,30.18,30.07,16,9,22,0.00
2013-1-28,57.0,50.1,46.0,-99.9,-99.9,-99.9,0,0,100,30.29,30.16,14,9,18,0.00
2013-1-29,56.0,50.9,48.0,-99.9,-99.9,-99.9,0,0,100,30.36,30.27,11,-10,15,0.00
2013-1-30,62.0,52.5,47.0,-99.9,-99.9,-99.9,0,0,100,30.35,30.26,6,-46,7,0.00
2013-1-31,61.0,53.3,46.0,-99.9,-99.9,-99.9,0,0,100,30.29,30.18,13,9,16,0.00
2013-2-1,64.0,54.9,49.0,-99.9,-99.9,-99.9,0,0,100,30.22,30.11,12,-16,17,0.00
2013-2-2,56.0,50.4,47.0,-99.9,-99.9,-99.9,0,0,100,30.31,30.22,11,-11,15,0.00
2013-2-3,56.0,51.1,48.0,-99.9,-99.9,-99.9,0,0,100,30.26,30.14,11,4,14,0.00
2013-2-4,53.0,49.0,46.0,-99.9,-99.9,-99.9,0,0,100,30.18,30.07,10,-26,11,0.00
2013-2-5,56.0,50.5,47.0,-99.9,-99.9,-99.9,0,0,100,30.16,30.07,14,6,19,0.00
2013-2-6,56.0,50.1,45.0,-99.9,-99.9,-99.9,0,0,100,30.21,30.13,11,-3,14,0.00
2013-2-7,54.0,49.6,46.0,-99.9,-99.9,-99.9,0,0,100,30.17,30.00,13,6,19,0.00
2013-2-8,54.0,48.3,43.0,-99.9,-99.9,-99.9,0,0,100,30.03,29.94,13,8,17,0.00
2013-2-9,55.0,50.3,45.0,-99.9,-99.9,-99.9,0,0,100,30.09,29.99,13,-54,16,0.00
2013-2-10,57.0,48.9,43.0,-99.9,-99.9,-99.9,0,0,100,30.13,30.02,6,-27,9,0.00
2013-2-11,60.0,53.4,49.0,-99.9,-99.9,-99.9,0,0,100,30.24,30.07,12,5,16,0.00
2013-2-12,57.0,50.1,46.0,-99.9,-99.9,-99.9,0,0,100,30.37,30.23,10,-18,13,0.00
2013-2-13,55.0,49.2,45.0,-99.9,-99.9,-99.9,0,0,100,30.35,30.22,9,-12,13,0.00
2013-2-14,63.0,52.2,45.0,-99.9,-99.9,-99.9,0,0,100,30.25,30.15,5,-34,7,0.00
2013-2-15,70.0,60.1,51.0,-99.9,-99.9,-99.9,0,0,100,30.27,30.20,12,6,15,0.00
2013-2-16,64.0,54.9,51.0,-99.9,-99.9,-99.9,0,0,100,30.24,30.05,13,8,15,0.00
2013-2-17,60.0,52.7,49.0,-99.9,-99.9,-99.9,0,0,100,30.06,29.97,9,-4,11,0.00
2013-2-18,52.0,49.1,46.0,-99.9,-99.9,-99.9,0,0,100,30.04,29.97,13,7,18,0.00
2013-2-19,50.0,46.8,44.0,-99.9,-99.9,-99.9,0,0,100,29.98,29.75,19,10,26,0.00
2013-2-20,58.0,48.9,43.0,-99.9,-99.9,-99.9,0,0,100,30.07,29.85,15,7,20,0.00
2013-2-21,59.0,50.8,46.0,-99.9,-99.9,-99.9,0,0,100,30.17,30.06,13,0,16,0.00
2013-2-22,59.0,51.0,45.0,-99.9,-99.9,-99.9,0,0,100,30.26,30.16,15,-3,19,0.00
2013-2-23,55.0,51.7,49.0,-99.9,-99.9,-99.9,0,0,100,30.27,30.16,17,11,22,0.00
2013-2-24,59.0,52.5,48.0,-99.9,-99.9,-99.9,0,0,100,30.26,30.17,17,8,20,0.00
2013-2-25,58.0,51.3,46.0,-99.9,-99.9,-99.9,0,0,100,30.27,30.17,11,-24,13,0.00
2013-2-26,60.0,51.9,45.0,-99.9,-99.9,-99.9,0,0,100,30.22,30.14,11,-10,13,0.00
2013-2-27,59.0,52.4,47.0,-99.9,-99.9,-99.9,0,0,100,30.37,30.21,13,-3,17,0.00
2013-2-28,59.0,53.6,51.0,-99.9,-99.9,-99.9,0,0,100,30.46,30.37,8,4,11,0.00
2013-3-1,67.0,55.7,48.0,-99.9,-99.9,-99.9,0,0,100,30.44,30.24,9,-11,11,0.00
2013-3-2,62.0,55.5,53.0,-99.9,-99.9,-99.9,0,0,100,30.25,30.07,13,5,21,0.00
2013-3-3,62.0,53.2,50.0,-99.9,-99.9,-99.9,0,0,100,30.11,30.04,13,5,19,0.00
2013-3-4,55.0,49.5,46.0,-99.9,-99.9,-99.9,0,0,100,30.16,30.06,11,-3,15,0.00
2013-3-5,54.0,50.1,45.0,-99.9,-99.9,-99.9,0,0,100,30.07,29.83,27,11,37,0.00
2013-3-6,54.0,51.8,48.0,-99.9,-99.9,-99.9,0,0,100,30.07,29.83,23,8,32,0.00
2013-3-7,54.0,49.4,46.0,-99.9,-99.9,-99.9,0,0,100,30.00,29.86,12,5,15,0.00
2013-3-8,57.0,51.1,48.0,-99.9,-99.9,-99.9,0,0,100,30.04,29.84,17,9,26,0.00
2013-3-9,62.0,52.9,47.0,-99.9,-99.9,-99.9,0,0,100,30.31,30.04,11,-3,14,0.00
2013-3-10,60.0,53.7,48.0,-99.9,-99.9,-99.9,0,0,100,30.35,30.25,8,-28,11,0.00
2013-3-11,61.0,52.9,47.0,-99.9,-99.9,-99.9,0,0,100,30.27,30.11,8,-4,13,0.00
2013-3-12,61.0,53.1,48.0,-99.9,-99.9,-99.9,0,0,100,30.17,30.08,7,3,10,0.00
2013-3-13,71.0,56.3,48.0,-99.9,-99.9,-99.9,0,0,100,30.17,30.06,11,-18,12,0.00
2013-3-14,60.0,54.6,52.0,-99.9,-99.9,-99.9,0,0,100,30.18,30.09,8,3,12,0.00
2013-3-15,61.0,54.5,51.0,-99.9,-99.9,-99.9,0,0,100,30.14,30.04,9,-26,12,0.00
2013-3-16,65.0,54.8,49.0,-99.9,-99.9,-99.9,0,0,100,30.13,30.03,19,8,23,0.00
2013-3-17,62.0,55.4,51.0,-99.9,-99.9,-99.9,0,0,100,30.16,30.05,13,7,19,0.00
2013-3-18,59.0,53.5,49.0,-99.9,-99.9,-99.9,0,0,100,30.12,30.04,11,4,17,0.00
2013-3-19,59.0,53.8,50.0,-99.9,-99.9,-99.9,0,0,100,30.15,30.06,12,4,16,0.00
2013-3-20,56.0,53.6,51.0,-99.9,-99.9,-99.9,0,0,100,30.14,30.07,10,5,17,0.00
2013-3-21,60.0,52.8,47.0,-99.9,-99.9,-99.9,0,0,100,30.14,30.02,16,8,22,0.00
2013-3-22,65.0,55.2,49.0,-99.9,-99.9,-99.9,0,0,100,30.13,30.03,15,8,17,0.00
2013-3-23,62.0,54.7,49.0,-99.9,-99.9,-99.9,0,0,100,30.15,30.05,14,4,16,0.00
2013-3-24,59.0,53.6,50.0,-99.9,-99.9,-99.9,0,0,100,30.10,29.98,11,4,15,0.00
2013-3-25,57.0,51.2,48.0,-99.9,-99.9,-99.9,0,0,100,30.04,29.94,14,6,17,0.00
2013-3-26,59.0,52.5,49.0,-99.9,-99.9,-99.9,0,0,100,30.01,29.94,10,-19,11,0.00
2013-3-27,59.0,53.9,51.0,-99.9,-99.9,-99.9,0,0,100,30.02,29.96,10,5,15,0.00
2013-3-28,63.0,56.6,54.0,-99.9,-99.9,-99.9,0,0,100,30.09,30.01,10,4,14,0.00
2013-3-29,68.0,56.0,50.0,-99.9,-99.9,-99.9,0,0,100,30.09,30.01,9,5,15,0.00
2013-3-30,60.0,56.0,53.0,-99.9,-99.9,-99.9,0,0,100,30.08,29.99,13,5,18,0.00
2013-3-31,61.0,57.1,55.0,-99.9,-99.9,-99.9,0,0,100,30.07,29.99,10,-3,16,0.00
2013-4-1,63.0,57.0,54.0,-99.9,-99.9,-99.9,0,0,100,30.16,30.05,9,-3,13,0.00
2013-4-2,61.0,55.2,51.0,-99.9,-99.9,-99.9,0,0,100,30.19,30.09,9,4,12,0.00
2013-4-3,65.0,54.1,50.0,-99.9,-99.9,-99.9,0,0,100,30.15,30.00,9,4,13,0.00
2013-4-4,59.0,55.3,51.0,-99.9,-99.9,-99.9,0,0,100,30.13,29.99,17,8,20,0.00
2013-4-5,61.0,56.9,55.0,-99.9,-99.9,-99.9,0,0,100,30.19,30.12,11,5,51,0.00
2013-4-6,60.0,55.8,53.0,-99.9,-99.9,-99.9,0,0,100,30.20,30.14,12,6,17,0.00
2013-4-7,60.0,56.0,52.0,-99.9,-99.9,-99.9,0,0,100,30.18,29.85,20,8,29,0.00
2013-4-8,63.0,54.9,50.0,-99.9,-99.9,-99.9,0,0,100,30.03,29.80,29,18,38,0.00
2013-4-9,73.0,61.7,55.0,-99.9,-99.9,-99.9,0,0,100,30.10,30.02,18,-4,21,0.00
2013-4-10,74.0,64.8,60.0,-99.9,-99.9,-99.9,0,0,100,30.18,30.03,22,8,27,0.00
2013-4-11,65.0,57.8,52.0,-99.9,-99.9,-99.9,0,0,100,30.07,29.85,22,8,28,0.00
2013-4-12,63.0,55.9,51.0,-99.9,-99.9,-99.9,0,0,100,29.93,29.83,11,6,15,0.00
2013-4-13,62.0,55.9,51.0,-99.9,-99.9,-99.9,0,0,100,29.91,29.83,19,9,22,0.00
2013-4-14,62.0,54.6,50.0,-99.9,-99.9,-99.9,0,0,100,29.94,29.87,24,10,29,0.00
2013-4-15,56.0,50.7,47.0,-99.9,-99.9,-99.9,0,0,100,29.96,29.87,25,14,33,0.00
2013-4-16,64.0,54.8,48.0,-99.9,-99.9,-99.9,0,0,100,30.16,29.96,15,10,19,0.00
2013-4-17,66.0,59.9,55.0,-99.9,-99.9,-99.9,0,0,100,30.28,30.16,21,-4,27,0.00
2013-4-18,69.0,59.6,54.0,-99.9,-99.9,-99.9,0,0,100,30.27,30.19,10,4,15,0.00
2013-4-19,69.0,58.5,52.0,-99.9,-99.9,-99.9,0,0,100,30.24,30.06,14,6,19,0.00
2013-4-20,70.0,60.5,53.0,-99.9,-99.9,-99.9,0,0,100,30.11,29.99,13,5,38,0.00
2013-4-21,68.0,59.5,53.0,-99.9,-99.9,-99.9,0,0,100,30.05,29.93,10,-4,13,0.00
2013-4-22,74.0,62.9,57.0,-99.9,-99.9,-99.9,0,0,100,29.97,29.86,7,-73,11,0.00
2013-4-23,73.0,61.5,51.0,-99.9,-99.9,-99.9,0,0,100,29.94,29.87,18,0,25,0.00
2013-4-24,57.0,52.8,49.0,-99.9,-99.9,-99.9,0,0,100,29.96,29.85,14,7,21,0.00
2013-4-25,59.0,55.5,53.0,-99.9,-99.9,-99.9,0,0,100,30.14,29.95,10,5,16,0.00
2013-4-26,61.0,54.6,51.0,-99.9,-99.9,-99.9,0,0,100,30.24,30.14,8,4,13,0.00
2013-4-27,61.0,53.6,49.0,-99.9,-99.9,-99.9,0,0,100,30.24,30.08,9,5,12,0.00
2013-4-28,66.0,56.9,50.0,-99.9,-99.9,-99.9,0,0,100,30.09,29.88,14,6,18,0.00
2013-4-29,70.0,62.3,57.0,-99.9,-99.9,-99.9,0,0,100,29.91,29.77,13,-26,16,0.00
2013-4-30,74.0,60.7,55.0,-99.9,-99.9,-99.9,0,0,100,29.86,29.80,19,4,25,0.00
2013-5-1,76.0,68.4,59.0,-99.9,-99.9,-99.9,0,0,100,30.09,29.84,20,10,57,0.00
2013-5-2,84.0,65.8,57.0,-99.9,-99.9,-99.9,0,0,100,30.16,30.08,9,-49,12,0.00
2013-5-3,77.0,65.4,56.0,-99.9,-99.9,-99.9,0,0,100,30.09,29.80,13,-26,32,0.00
2013-5-4,68.0,59.3,55.0,-99.9,-99.9,-99.9,0,0,100,29.80,29.60,15,7,34,0.00
2013-5-5,62.0,59.0,56.0,-99.9,-99.9,-99.9,0,0,100,29.82,29.62,15,7,23,0.00
2013-5-6,66.0,60.8,58.0,-99.9,-99.9,-99.9,0,0,100,29.98,29.82,12,5,17,0.00
2013-5-7,65.0,60.3,56.0,-99.9,-99.9,-99.9,0,0,100,30.06,29.97,11,6,29,0.00
2013-5-8,60.0,56.0,54.0,-99.9,-99.9,-99.9,0,0,100,30.14,30.05,12,6,16,0.00
2013-5-9,63.0,56.7,53.0,-99.9,-99.9,-99.9,0,0,100,30.18,30.09,10,5,14,0.00
2013-5-10,64.0,55.3,53.0,-99.9,-99.9,-99.9,0,0,100,30.19,30.11,17,6,20,0.00
2013-5-11,66.0,56.5,51.0,-99.9,-99.9,-99.9,0,0,100,30.16,30.06,13,6,18,0.00
2013-5-12,67.0,58.7,53.0,-99.9,-99.9,-99.9,0,0,100,30.16,30.04,14,7,19,0.00
2013-5-13,65.0,57.7,52.0,-99.9,-99.9,-99.9,0,0,100,30.10,29.96,17,9,23,0.00
2013-5-14,62.0,57.5,54.0,-99.9,-99.9,-99.9,0,0,100,30.00,29.93,18,10,29,0.00
2013-5-15,66.0,58.7,53.0,-99.9,-99.9,-99.9,0,0,100,30.05,29.99,19,8,24,0.00
2013-5-16,64.0,56.1,56.0,-99.9,-99.9,-99.9,0,0,100,30.04,29.97,16,7,20,0.00
2013-5-17,65.0,57.9,54.0,-99.9,-99.9,-99.9,0,0,100,30.08,29.97,15,7,20,0.00
2013-5-18,71.0,59.5,53.0,-99.9,-99.9,-99.9,0,0,100,30.14,30.07,16,6,22,0.00
2013-5-19,75.0,63.4,57.0,-99.9,-99.9,-99.9,0,0,100,30.13,29.98,12,4,18,0.00
2013-5-20,75.0,63.3,57.0,-99.9,-99.9,-99.9,0,0,100,30.01,29.93,13,-18,19,0.00
2013-5-21,64.0,58.1,53.0,-99.9,-99.9,-99.9,0,0,100,30.00,29.92,23,12,32,0.00
2013-5-22,62.0,55.3,51.0,-99.9,-99.9,-99.9,0,0,100,30.03,29.91,23,14,28,0.00
2013-5-23,65.0,56.0,50.0,-99.9,-99.9,-99.9,0,0,100,30.01,29.92,16,9,21,0.00
2013-5-24,66.0,57.4,53.0,-99.9,-99.9,-99.9,0,0,100,30.01,29.94,15,-1,20,0.00
2013-5-25,65.0,56.2,52.0,-99.9,-99.9,-99.9,0,0,100,30.05,29.97,21,9,28,0.00
2013-5-26,63.0,58.7,54.0,-99.9,-99.9,-99.9,0,0,100,30.14,30.05,17,7,22,0.00
2013-5-27,61.0,57.6,56.0,-99.9,-99.9,-99.9,0,0,100,30.13,30.00,12,8,17,0.00
2013-5-28,67.0,59.7,55.0,-99.9,-99.9,-99.9,0,0,100,30.01,29.93,17,6,23,0.00
2013-5-29,67.0,60.6,57.0,-99.9,-99.9,-99.9,0,0,100,29.98,29.91,17,8,22,0.00
2013-5-30,69.0,60.2,54.0,-99.9,-99.9,-99.9,0,0,100,30.00,29.94,14,5,18,0.00
2013-5-31,70.0,60.6,55.0,-99.9,-99.9,-99.9,0,0,100,30.03,29.91,10,5,13,0.00
2013-6-1,69.0,61.4,56.0,-99.9,-99.9,-99.9,0,0,100,29.95,29.78,10,5,13,0.00
2013-6-2,64.0,57.4,54.0,-99.9,-99.9,-99.9,0,0,100,29.80,29.68,14,10,23,0.00
2013-6-3,60.0,56.5,54.0,-99.9,-99.9,-99.9,0,0,100,29.87,29.73,12,5,23,0.00
2013-6-4,59.0,56.2,55.0,-99.9,-99.9,-99.9,0,0,100,29.98,29.87,14,7,22,0.00
2013-6-5,60.0,55.8,53.0,-99.9,-99.9,-99.9,0,0,100,30.01,29.93,13,7,20,0.00
2013-6-6,62.0,56.1,52.0,-99.9,-99.9,-99.9,0,0,100,29.97,29.87,9,5,14,0.00
2013-6-7,68.0,58.3,53.0,-99.9,-99.9,-99.9,0,0,100,29.90,29.72,10,6,15,0.00
2013-6-8,65.0,59.7,57.0,-99.9,-99.9,-99.9,0,0,100,29.83,29.72,14,5,22,0.00
2013-6-9,60.0,57.9,56.0,-99.9,-99.9,-99.9,0,0,100,29.91,29.83,13,6,18,0.00
2013-6-10,62.0,58.6,56.0,-99.9,-99.9,-99.9,0,0,100,29.96,29.83,13,7,19,0.00
2013-6-11,66.0,59.7,57.0,-99.9,-99.9,-99.9,0,0,100,30.00,29.89,17,6,21,0.00
2013-6-12,72.0,61.2,55.0,-99.9,-99.9,-99.9,0,0,100,30.00,29.91,17,7,23,0.00
2013-6-13,72.0,61.8,55.0,-99.9,-99.9,-99.9,0,0,100,30.10,30.00,10,-10,13,0.00
2013-6-14,71.0,61.8,55.0,-99.9,-99.9,-99.9,0,0,100,30.01,29.83,13,6,17,0.00
2013-6-15,62.0,55.2,52.0,-99.9,-99.9,-99.9,0,0,100,30.00,29.84,15,9,19,0.00
2013-6-16,73.0,60.1,53.0,-99.9,-99.9,-99.9,0,0,100,30.09,29.99,15,9,22,0.00
2013-6-17,69.0,62.0,55.0,-99.9,-99.9,-99.9,0,0,100,30.09,30.02,17,7,53,0.00
2013-6-18,66.0,60.8,57.0,-99.9,-99.9,-99.9,0,0,100,30.04,29.98,23,11,29,0.00
2013-6-19,69.0,61.0,56.0,-99.9,-99.9,-99.9,0,0,100,30.06,30.00,16,9,32,0.00
2013-6-20,66.0,59.4,58.0,-99.9,-99.9,-99.9,0,0,100,30.02,29.96,12,6,16,0.00
2013-6-22,74.0,65.1,58.0,-99.9,-99.9,-99.9,0,0,100,29.95,29.84,16,6,21,0.00
2013-6-23,62.0,59.2,57.0,-99.9,-99.9,-99.9,0,0,100,29.88,29.83,16,7,21,0.00
2013-6-24,60.0,57.9,56.0,-99.9,-99.9,-99.9,0,0,100,29.91,29.80,11,6,16,0.00
2013-6-25,64.0,61.3,59.0,-99.9,-99.9,-99.9,0,0,100,30.00,29.89,9,-7,15,0.00
2013-6-26,72.0,65.2,60.0,-99.9,-99.9,-99.9,0,0,100,30.06,29.98,7,-6,13,0.00
2013-6-27,72.0,63.6,58.0,-99.9,-99.9,-99.9,0,0,100,30.09,30.01,9,4,11,0.00
2013-6-28,72.0,64.7,60.0,-99.9,-99.9,-99.9,0,0,100,30.04,29.90,10,4,15,0.00
2013-6-29,74.0,65.3,61.0,-99.9,-99.9,-99.9,0,0,100,29.92,29.80,17,6,36,0.00
2013-6-30,69.0,62.8,59.0,-99.9,-99.9,-99.9,0,0,100,29.85,29.76,15,8,20,0.00
2013-7-1,72.0,63.3,59.0,-99.9,-99.9,-99.9,0,0,100,29.85,29.80,14,6,20,0.00
2013-7-2,70.0,63.0,58.0,-99.9,-99.9,-99.9,0,0,100,29.94,29.83,15,8,21,0.00
2013-7-3,75.0,63.8,59.0,-99.9,-99.9,-99.9,0,0,100,29.93,29.78,11,5,14,0.00
2013-7-4,70.0,65.3,60.0,-99.9,-99.9,-99.9,0,0,100,29.80,29.68,19,7,22,0.00
2013-7-5,61.0,58.9,56.0,-99.9,-99.9,-99.9,0,0,100,29.78,29.72,19,11,33,0.00
2013-7-6,61.0,56.9,55.0,-99.9,-99.9,-99.9,0,0,100,29.83,29.75,13,9,23,0.00
2013-7-7,64.0,58.4,56.0,-99.9,-99.9,-99.9,0,0,100,29.88,29.80,12,6,18,0.00
2013-7-8,63.0,57.2,56.0,-99.9,-99.9,-99.9,0,0,100,29.98,29.88,10,6,15,0.00
2013-7-9,70.0,60.8,54.0,-99.9,-99.9,-99.9,0,0,100,30.04,29.93,7,4,12,0.00
2013-7-10,65.0,57.3,55.0,-99.9,-99.9,-99.9,0,0,100,29.99,29.91,11,5,18,0.00
2013-7-11,61.0,56.3,53.0,-99.9,-99.9,-99.9,0,0,100,29.96,29.89,11,6,19,0.00
2013-7-12,64.0,57.8,56.0,-99.9,-99.9,-99.9,0,0,100,29.96,29.88,13,8,18,0.00
2013-7-13,64.0,59.2,56.0,-99.9,-99.9,-99.9,0,0,100,29.98,29.91,14,9,18,0.00
2013-7-14,63.0,57.7,55.0,-99.9,-99.9,-99.9,0,0,100,30.01,29.91,14,7,17,0.00
2013-7-15,61.0,55.9,52.0,-99.9,-99.9,-99.9,0,0,100,29.94,29.85,13,7,18,0.00
2013-7-16,61.0,58.1,56.0,-99.9,-99.9,-99.9,0,0,100,30.04,29.88,13,7,19,0.00
2013-7-17,66.0,61.0,58.0,-99.9,-99.9,-99.9,0,0,100,30.11,30.03,11,5,14,0.00
2013-7-18,67.0,58.4,55.0,-99.9,-99.9,-99.9,0,0,100,30.07,29.95,11,6,14,0.00
2013-7-19,65.0,57.9,55.0,-99.9,-99.9,-99.9,0,0,100,29.97,29.83,13,10,17,0.00
2013-7-20,64.0,55.7,54.0,-99.9,-99.9,-99.9,0,0,100,29.87,29.75,14,10,19,0.00
2013-7-21,62.0,57.4,55.0,-99.9,-99.9,-99.9,0,0,100,29.90,29.78,11,7,17,0.00
2013-7-22,66.0,60.0,55.0,-99.9,-99.9,-99.9,0,0,100,29.97,29.90,10,6,15,0.00
2013-7-23,67.0,62.5,59.0,-99.9,-99.9,-99.9,0,0,100,30.02,29.95,10,5,13,0.00
2013-7-24,68.0,62.2,57.0,-99.9,-99.9,-99.9,0,0,100,30.00,29.91,8,5,14,0.00
2013-7-25,64.0,58.9,55.0,-99.9,-99.9,-99.9,0,0,100,30.03,29.94,12,7,50,0.00
2013-7-26,65.0,58.3,55.0,-99.9,-99.9,-99.9,0,0,100,30.11,30.01,12,6,14,0.00
2013-7-27,63.0,57.9,55.0,-99.9,-99.9,-99.9,0,0,100,30.05,29.88,11,6,19,0.00
2013-7-28,61.0,57.2,55.0,-99.9,-99.9,-99.9,0,0,100,29.89,29.83,13,9,18,0.00
2013-7-29,61.0,57.7,56.0,-99.9,-99.9,-99.9,0,0,100,30.02,29.85,15,8,20,0.00
2013-7-30,62.0,57.9,55.0,-99.9,-99.9,-99.9,0,0,100,30.12,30.03,10,6,18,0.00
2013-7-31,67.0,59.2,54.0,-99.9,-99.9,-99.9,0,0,100,30.10,30.00,10,6,17,0.00
2013-8-1,66.0,61.4,58.0,-99.9,-99.9,-99.9,0,0,100,30.07,29.96,11,5,15,0.00
2013-8-2,64.0,58.8,54.0,-99.9,-99.9,-99.9,0,0,100,29.99,29.90,13,9,16,0.00
2013-8-3,62.0,57.1,54.0,-99.9,-99.9,-99.9,0,0,100,29.99,29.92,14,8,19,0.00
2013-8-4,61.0,56.8,54.0,-99.9,-99.9,-99.9,0,0,100,30.02,29.96,14,7,19,0.00
2013-8-5,62.0,57.1,55.0,-99.9,-99.9,-99.9,0,0,100,30.04,29.95,9,6,14,0.00
2013-8-6,62.0,57.6,55.0,-99.9,-99.9,-99.9,0,0,100,30.05,29.99,15,6,19,0.00
2013-8-10,65.0,61.2,58.0,-99.9,-99.9,-99.9,0,0,100,30.06,30.00,11,5,52,0.00
2013-8-11,65.0,59.5,56.0,-99.9,-99.9,-99.9,0,0,100,30.04,29.95,11,6,14,0.00
2013-8-12,63.0,58.9,56.0,-99.9,-99.9,-99.9,0,0,100,30.01,29.95,10,8,15,0.00
2013-8-13,70.0,56.9,57.0,-99.9,-99.9,-99.9,0,0,100,30.00,29.92,16,7,19,0.00
2013-8-14,69.0,61.2,55.0,-99.9,-99.9,-99.9,0,0,100,29.99,29.91,15,10,18,0.00
2013-8-15,72.0,47.9,61.0,-99.9,-99.9,-99.9,0,0,100,29.97,29.92,14,8,16,0.00
2013-8-16,70.0,56.0,59.0,-99.9,-99.9,-99.9,0,0,100,30.00,29.94,14,8,18,0.00
2013-8-21,66.0,61.5,59.0,-99.9,-99.9,-99.9,0,0,100,29.95,29.87,11,6,17,0.00
2013-8-22,66.0,62.2,58.0,-99.9,-99.9,-99.9,0,0,100,29.97,29.90,11,6,14,0.00
2013-8-23,65.0,59.8,58.0,-99.9,-99.9,-99.9,0,0,100,29.94,29.83,16,7,19,0.00
2013-8-24,71.0,58.4,59.0,-99.9,-99.9,-99.9,0,0,100,29.90,29.84,13,8,18,0.00
2013-8-25,68.0,64.4,61.0,-99.9,-99.9,-99.9,0,0,100,29.96,29.90,11,7,17,0.00
2013-8-26,71.0,64.1,62.0,-99.9,-99.9,-99.9,0,0,100,30.02,29.91,13,6,19,0.00
2013-8-27,62.0,60.4,58.0,-99.9,-99.9,-99.9,0,0,100,29.91,29.88,10,7,13,0.00
2013-9-6,86.0,71.1,63.0,-99.9,-99.9,-99.9,0,0,100,29.99,29.83,9,3,10,0.00
2013-9-7,75.0,66.1,65.0,-99.9,-99.9,-99.9,0,0,100,29.88,29.81,9,2,12,0.00
2013-9-8,70.0,62.7,59.0,-99.9,-99.9,-99.9,0,0,100,29.88,29.76,7,4,13,0.00
2013-9-9,69.0,63.2,58.0,-99.9,-99.9,-99.9,0,0,100,29.82,29.71,13,4,18,0.00
2013-9-10,65.0,63.0,60.0,-99.9,-99.9,-99.9,0,0,100,29.90,29.75,12,8,18,0.00
2013-9-11,67.0,64.1,63.0,-99.9,-99.9,-99.9,0,0,100,30.00,29.91,8,6,15,0.00
2013-9-12,70.0,64.7,62.0,-99.9,-99.9,-99.9,0,0,100,29.99,29.88,13,6,15,0.00
2013-9-28,70.0,56.4,58.0,-99.9,-99.9,-99.9,0,0,100,30.09,30.01,12,7,15,0.00
2013-9-29,69.0,63.1,59.0,-99.9,-99.9,-99.9,0,0,100,30.11,30.06,11,5,13,0.00
2013-9-30,66.0,63.2,61.0,-99.9,-99.9,-99.9,0,0,100,30.08,29.99,11,7,15,0.00
2013-10-1,63.0,62.3,62.0,-99.9,-99.9,-99.9,0,0,100,29.95,29.95,6,4,7,0.00
2013-10-2,66.0,60.7,58.0,-99.9,-99.9,-99.9,0,0,100,30.01,29.94,13,4,21,0.00
2013-10-3,72.0,64.8,59.0,-99.9,-99.9,-99.9,0,0,100,30.09,29.96,23,9,33,0.00
2013-10-4,76.0,68.2,65.0,-99.9,-99.9,-99.9,0,0,100,30.09,29.97,28,16,39,0.00
2013-10-12,60.0,51.4,52.0,-99.9,-99.9,-99.9,0,0,100,30.01,29.91,8,6,14,0.00
2013-10-13,63.0,58.6,56.0,-99.9,-99.9,-99.9,0,0,100,30.03,29.93,9,4,12,0.00
2013-10-14,73.0,60.1,55.0,-99.9,-99.9,-99.9,0,0,100,30.12,30.01,6,3,8,0.00
2013-10-15,70.0,60.8,56.0,-99.9,-99.9,-99.9,0,0,100,30.04,29.96,11,4,13,0.00
2013-10-16,72.0,63.2,57.0,-99.9,-99.9,-99.9,0,0,100,30.09,30.00,11,4,11,0.00
2013-10-17,67.0,59.9,57.0,-99.9,-99.9,-99.9,0,0,100,30.09,29.98,6,2,7,0.00
2013-10-18,64.0,58.9,55.0,-99.9,-99.9,-99.9,0,0,100,30.06,29.99,6,3,6,0.00